sensor_id;sensor_type;location;lat;lon;timestamp;pressure;altitude;pressure_sealevel;temperature;humidity
8294;BME280;4185;41.506;24.938;2023-01-24T00:01:01;94497.84;;;5.22;97.21
8294;BME280;4185;41.506;24.938;2023-01-24T00:03:28;94508.97;;;5.24;97.47
8294;BME280;4185;41.506;24.938;2023-01-24T00:05:55;94508.31;;;5.20;96.92
8294;BME280;4185;41.506;24.938;2023-01-24T00:08:23;94505.38;;;5.14;97.70
8294;BME280;4185;41.506;24.938;2023-01-24T00:10:57;94511.59;;;5.11;98.00
8294;BME280;4185;41.506;24.938;2023-01-24T00:13:25;94508.47;;;5.13;97.84
8294;BME280;4185;41.506;24.938;2023-01-24T00:15:51;94513.34;;;5.18;98.73
8294;BME280;4185;41.506;24.938;2023-01-24T00:18:27;94510.66;;;5.18;96.90
8294;BME280;4185;41.506;24.938;2023-01-24T00:21:00;94508.47;;;5.13;98.00
8294;BME280;4185;41.506;24.938;2023-01-24T00:23:28;94512.28;;;5.15;98.81
8294;BME280;4185;41.506;24.938;2023-01-24T00:25:55;94507.88;;;5.21;97.80
8294;BME280;4185;41.506;24.938;2023-01-24T00:28:21;94508.22;;;5.23;96.96
8294;BME280;4185;41.506;24.938;2023-01-24T00:30:48;94514.34;;;5.24;97.40
8294;BME280;4185;41.506;24.938;2023-01-24T00:33:15;94517.28;;;5.29;98.26
8294;BME280;4185;41.506;24.938;2023-01-24T00:35:42;94518.53;;;5.25;96.30
8294;BME280;4185;41.506;24.938;2023-01-24T00:38:08;94518.66;;;5.21;96.17
8294;BME280;4185;41.506;24.938;2023-01-24T00:40:37;94519.06;;;5.20;97.03
8294;BME280;4185;41.506;24.938;2023-01-24T00:43:03;94529.09;;;5.19;97.20
8294;BME280;4185;41.506;24.938;2023-01-24T00:45:30;94533.81;;;5.15;97.28
8294;BME280;4185;41.506;24.938;2023-01-24T00:47:57;94524.47;;;5.20;97.40
8294;BME280;4185;41.506;24.938;2023-01-24T00:50:24;94522.44;;;5.24;96.62
8294;BME280;4185;41.506;24.938;2023-01-24T00:52:51;94514.34;;;5.24;96.90
8294;BME280;4185;41.506;24.938;2023-01-24T00:55:18;94518.22;;;5.23;96.59
8294;BME280;4185;41.506;24.938;2023-01-24T00:57:46;94514.44;;;5.20;95.34
8294;BME280;4185;41.506;24.938;2023-01-24T01:00:13;94511.50;;;5.15;95.79
8294;BME280;4185;41.506;24.938;2023-01-24T01:02:40;94506.66;;;5.10;95.87
8294;BME280;4185;41.506;24.938;2023-01-24T01:05:07;94518.94;;;5.11;95.76
8294;BME280;4185;41.506;24.938;2023-01-24T01:07:35;94516.16;;;5.14;96.70
8294;BME280;4185;41.506;24.938;2023-01-24T01:10:02;94509.59;;;5.15;95.79
8294;BME280;4185;41.506;24.938;2023-01-24T01:12:29;94521.44;;;5.18;96.37
8294;BME280;4185;41.506;24.938;2023-01-24T01:14:57;94509.16;;;5.17;95.86
8294;BME280;4185;41.506;24.938;2023-01-24T01:17:24;94523.81;;;5.16;96.71
8294;BME280;4185;41.506;24.938;2023-01-24T01:19:50;94509.25;;;5.13;94.24
8294;BME280;4185;41.506;24.938;2023-01-24T01:22:17;94512.38;;;5.12;95.54
8294;BME280;4185;41.506;24.938;2023-01-24T01:24:44;94518.53;;;5.12;95.88
8294;BME280;4185;41.506;24.938;2023-01-24T01:27:11;94513.56;;;5.11;94.86
8294;BME280;4185;41.506;24.938;2023-01-24T01:29:38;94517.75;;;5.12;94.43
8294;BME280;4185;41.506;24.938;2023-01-24T01:32:06;94513.88;;;5.13;93.21
8294;BME280;4185;41.506;24.938;2023-01-24T01:34:33;94514.53;;;5.17;94.33
8294;BME280;4185;41.506;24.938;2023-01-24T01:37:00;94512.72;;;5.14;94.53
8294;BME280;4185;41.506;24.938;2023-01-24T01:39:27;94515.16;;;5.08;93.73
8294;BME280;4185;41.506;24.938;2023-01-24T01:41:54;94517.69;;;4.99;93.25
8294;BME280;4185;41.506;24.938;2023-01-24T01:44:22;94523.41;;;5.01;93.35
8294;BME280;4185;41.506;24.938;2023-01-24T01:47:14;94511.91;;;5.01;93.01
8294;BME280;4185;41.506;24.938;2023-01-24T01:49:45;94528.38;;;5.03;92.66
8294;BME280;4185;41.506;24.938;2023-01-24T01:52:13;94520.97;;;5.07;93.89
8294;BME280;4185;41.506;24.938;2023-01-24T01:54:42;94520.13;;;5.10;94.24
8294;BME280;4185;41.506;24.938;2023-01-24T01:57:14;94527.84;;;5.08;94.32
8294;BME280;4185;41.506;24.938;2023-01-24T01:59:45;94524.84;;;5.06;93.56
8294;BME280;4185;41.506;24.938;2023-01-24T02:02:16;94531.75;;;5.07;93.33
8294;BME280;4185;41.506;24.938;2023-01-24T02:04:46;94531.06;;;5.03;94.40
8294;BME280;4185;41.506;24.938;2023-01-24T02:07:19;94533.66;;;5.06;93.68
8294;BME280;4185;41.506;24.938;2023-01-24T02:09:50;94534.00;;;5.08;94.26
8294;BME280;4185;41.506;24.938;2023-01-24T02:12:20;94528.81;;;5.01;93.07
8294;BME280;4185;41.506;24.938;2023-01-24T02:14:52;94534.09;;;5.05;93.50
8294;BME280;4185;41.506;24.938;2023-01-24T02:17:39;94528.19;;;5.10;94.66
8294;BME280;4185;41.506;24.938;2023-01-24T02:20:14;94528.53;;;5.12;93.61
8294;BME280;4185;41.506;24.938;2023-01-24T02:22:52;94527.66;;;5.15;94.57
8294;BME280;4185;41.506;24.938;2023-01-24T02:25:28;94534.59;;;5.16;94.00
8294;BME280;4185;41.506;24.938;2023-01-24T02:27:57;94533.06;;;5.15;93.82
8294;BME280;4185;41.506;24.938;2023-01-24T02:30:24;94533.06;;;5.15;93.95
8294;BME280;4185;41.506;24.938;2023-01-24T02:32:51;94530.88;;;5.10;93.82
8294;BME280;4185;41.506;24.938;2023-01-24T02:35:23;94527.84;;;5.08;93.90
8294;BME280;4185;41.506;24.938;2023-01-24T02:37:51;94531.41;;;5.05;95.14
8294;BME280;4185;41.506;24.938;2023-01-24T02:40:18;94534.88;;;5.05;94.39
8294;BME280;4185;41.506;24.938;2023-01-24T02:42:45;94537.97;;;5.04;94.96
8294;BME280;4185;41.506;24.938;2023-01-24T02:45:16;94534.00;;;5.08;94.85
8294;BME280;4185;41.506;24.938;2023-01-24T02:47:47;94529.47;;;5.05;94.69
8294;BME280;4185;41.506;24.938;2023-01-24T02:50:15;94525.78;;;4.99;95.43
8294;BME280;4185;41.506;24.938;2023-01-24T02:52:42;94526.72;;;4.92;96.48
8294;BME280;4185;41.506;24.938;2023-01-24T02:55:26;94521.34;;;4.92;95.65
8294;BME280;4185;41.506;24.938;2023-01-24T02:57:53;94518.97;;;4.94;95.07
8294;BME280;4185;41.506;24.938;2023-01-24T03:00:36;94520.16;;;4.93;95.23
8294;BME280;4185;41.506;24.938;2023-01-24T03:03:03;94518.63;;;4.92;95.51
8294;BME280;4185;41.506;24.938;2023-01-24T03:05:30;94522.63;;;4.88;94.47
8294;BME280;4185;41.506;24.938;2023-01-24T03:08:05;94531.28;;;4.79;94.89
8294;BME280;4185;41.506;24.938;2023-01-24T03:10:32;94524.81;;;4.77;95.06
8294;BME280;4185;41.506;24.938;2023-01-24T03:12:59;94526.75;;;4.76;95.13
8294;BME280;4185;41.506;24.938;2023-01-24T03:15:45;94529.44;;;4.76;94.97
8294;BME280;4185;41.506;24.938;2023-01-24T03:18:29;94530.63;;;4.75;94.82
8294;BME280;4185;41.506;24.938;2023-01-24T03:21:13;94535.56;;;4.77;95.05
8294;BME280;4185;41.506;24.938;2023-01-24T03:23:58;94527.63;;;4.73;94.06
8294;BME280;4185;41.506;24.938;2023-01-24T03:26:41;94525.22;;;4.75;95.77
8294;BME280;4185;41.506;24.938;2023-01-24T03:29:25;94529.44;;;4.76;95.84
8294;BME280;4185;41.506;24.938;2023-01-24T03:32:11;94526.84;;;4.73;96.33
8294;BME280;4185;41.506;24.938;2023-01-24T03:34:55;94526.00;;;4.76;96.19
8294;BME280;4185;41.506;24.938;2023-01-24T03:37:23;94520.44;;;4.83;95.97
8294;BME280;4185;41.506;24.938;2023-01-24T03:40:06;94514.81;;;4.77;94.73
8294;BME280;4185;41.506;24.938;2023-01-24T03:42:34;94512.19;;;4.74;94.88
8294;BME280;4185;41.506;24.938;2023-01-24T03:45:12;94519.41;;;4.77;94.44
8294;BME280;4185;41.506;24.938;2023-01-24T03:47:44;94520.28;;;4.74;93.90
8294;BME280;4185;41.506;24.938;2023-01-24T03:50:20;94522.53;;;4.75;94.59
8294;BME280;4185;41.506;24.938;2023-01-24T03:53:06;94521.38;;;4.76;94.09
8294;BME280;4185;41.506;24.938;2023-01-24T03:55:33;94514.16;;;4.73;95.18
8294;BME280;4185;41.506;24.938;2023-01-24T03:58:00;94523.22;;;4.79;95.51
8294;BME280;4185;41.506;24.938;2023-01-24T04:00:27;94520.00;;;4.84;95.47
8294;BME280;4185;41.506;24.938;2023-01-24T04:02:55;94518.50;;;4.83;94.13
8294;BME280;4185;41.506;24.938;2023-01-24T04:05:22;94513.31;;;4.76;93.96
8294;BME280;4185;41.506;24.938;2023-01-24T04:07:49;94507.25;;;4.72;94.16
8294;BME280;4185;41.506;24.938;2023-01-24T04:10:16;94509.59;;;4.70;94.43
8294;BME280;4185;41.506;24.938;2023-01-24T04:12:43;94501.41;;;4.61;94.10
8294;BME280;4185;41.506;24.938;2023-01-24T04:15:16;94507.59;;;4.58;95.26
8294;BME280;4185;41.506;24.938;2023-01-24T04:17:43;94507.72;;;4.55;94.62
8294;BME280;4185;41.506;24.938;2023-01-24T04:20:12;94510.47;;;4.51;94.76
8294;BME280;4185;41.506;24.938;2023-01-24T04:22:39;94500.22;;;4.46;94.58
8294;BME280;4185;41.506;24.938;2023-01-24T04:25:07;94500.88;;;4.50;95.18
8294;BME280;4185;41.506;24.938;2023-01-24T04:27:35;94504.59;;;4.56;96.05
8294;BME280;4185;41.506;24.938;2023-01-24T04:30:02;94497.50;;;4.62;96.29
8294;BME280;4185;41.506;24.938;2023-01-24T04:32:29;94493.16;;;4.68;95.25
8294;BME280;4185;41.506;24.938;2023-01-24T04:34:56;94488.91;;;4.67;94.78
8294;BME280;4185;41.506;24.938;2023-01-24T04:37:24;94491.28;;;4.65;95.36
8294;BME280;4185;41.506;24.938;2023-01-24T04:39:50;94485.91;;;4.65;94.61
8294;BME280;4185;41.506;24.938;2023-01-24T04:42:17;94492.13;;;4.62;93.99
8294;BME280;4185;41.506;24.938;2023-01-24T04:44:44;94485.94;;;4.49;94.47
8294;BME280;4185;41.506;24.938;2023-01-24T04:47:11;94498.38;;;4.43;93.45
8294;BME280;4185;41.506;24.938;2023-01-24T04:49:38;94493.50;;;4.38;93.98
8294;BME280;4185;41.506;24.938;2023-01-24T04:52:06;94497.72;;;4.39;94.07
8294;BME280;4185;41.506;24.938;2023-01-24T04:54:34;94489.56;;;4.43;93.92
8294;BME280;4185;41.506;24.938;2023-01-24T04:57:01;94500.22;;;4.46;93.42
8294;BME280;4185;41.506;24.938;2023-01-24T04:59:27;94496.00;;;4.45;94.56
8294;BME280;4185;41.506;24.938;2023-01-24T05:01:54;94502.41;;;4.51;95.16
8294;BME280;4185;41.506;24.938;2023-01-24T05:04:21;94500.88;;;4.50;95.92
8294;BME280;4185;41.506;24.938;2023-01-24T05:06:48;94496.53;;;4.56;94.80
8294;BME280;4185;41.506;24.938;2023-01-24T05:09:15;94505.25;;;4.60;95.02
8294;BME280;4185;41.506;24.938;2023-01-24T05:11:43;94505.06;;;4.67;94.79
8294;BME280;4185;41.506;24.938;2023-01-24T05:14:11;94513.06;;;4.71;94.09
8294;BME280;4185;41.506;24.938;2023-01-24T05:16:38;94512.88;;;4.62;93.98
8294;BME280;4185;41.506;24.938;2023-01-24T05:19:05;94531.06;;;4.58;93.31
8294;BME280;4185;41.506;24.938;2023-01-24T05:21:32;94538.03;;;4.55;93.03
8294;BME280;4185;41.506;24.938;2023-01-24T05:23:59;94533.84;;;4.54;93.72
8294;BME280;4185;41.506;24.938;2023-01-24T05:26:26;94536.19;;;4.52;93.39
8294;BME280;4185;41.506;24.938;2023-01-24T05:28:54;94528.56;;;4.51;94.46
8294;BME280;4185;41.506;24.938;2023-01-24T05:31:21;94530.72;;;4.56;95.30
8294;BME280;4185;41.506;24.938;2023-01-24T05:33:48;94528.94;;;4.65;95.64
8294;BME280;4185;41.506;24.938;2023-01-24T05:36:17;94526.09;;;4.72;95.15
8294;BME280;4185;41.506;24.938;2023-01-24T05:38:45;94525.56;;;4.77;94.81
8294;BME280;4185;41.506;24.938;2023-01-24T05:41:14;94534.94;;;4.73;92.72
8294;BME280;4185;41.506;24.938;2023-01-24T05:43:42;94527.94;;;4.75;93.26
8294;BME280;4185;41.506;24.938;2023-01-24T05:46:13;94529.53;;;4.73;92.81
8294;BME280;4185;41.506;24.938;2023-01-24T05:48:41;94531.31;;;4.63;92.41
8294;BME280;4185;41.506;24.938;2023-01-24T05:51:10;94521.38;;;4.60;93.27
8294;BME280;4185;41.506;24.938;2023-01-24T05:53:38;94517.97;;;4.60;92.78
8294;BME280;4185;41.506;24.938;2023-01-24T05:56:07;94516.00;;;4.60;92.14
8294;BME280;4185;41.506;24.938;2023-01-24T05:58:36;94528.59;;;4.63;92.36
8294;BME280;4185;41.506;24.938;2023-01-24T06:01:06;94539.38;;;4.63;92.85
8294;BME280;4185;41.506;24.938;2023-01-24T06:03:36;94539.16;;;4.58;92.70
8294;BME280;4185;41.506;24.938;2023-01-24T06:06:04;94545.47;;;4.51;92.49
8294;BME280;4185;41.506;24.938;2023-01-24T06:08:31;94542.09;;;4.47;93.30
8294;BME280;4185;41.506;24.938;2023-01-24T06:11:02;94544.94;;;4.40;93.92
8294;BME280;4185;41.506;24.938;2023-01-24T06:13:29;94540.41;;;4.37;94.84
8294;BME280;4185;41.506;24.938;2023-01-24T06:16:01;94545.63;;;4.44;94.42
8294;BME280;4185;41.506;24.938;2023-01-24T06:18:28;94545.63;;;4.44;94.55
8294;BME280;4185;41.506;24.938;2023-01-24T06:20:56;94543.34;;;4.43;94.29
8294;BME280;4185;41.506;24.938;2023-01-24T06:23:25;94543.00;;;4.41;93.45
8294;BME280;4185;41.506;24.938;2023-01-24T06:25:53;94546.47;;;4.41;93.75
8294;BME280;4185;41.506;24.938;2023-01-24T06:28:20;94550.31;;;4.40;94.51
8294;BME280;4185;41.506;24.938;2023-01-24T06:31:02;94552.25;;;4.40;94.25
8294;BME280;4185;41.506;24.938;2023-01-24T06:33:41;94560.59;;;4.29;93.42
8294;BME280;4185;41.506;24.938;2023-01-24T06:36:30;94564.44;;;4.28;94.63
8294;BME280;4185;41.506;24.938;2023-01-24T06:39:02;94571.66;;;4.31;93.75
8294;BME280;4185;41.506;24.938;2023-01-24T06:41:29;94560.75;;;4.22;94.61
8294;BME280;4185;41.506;24.938;2023-01-24T06:43:59;94565.19;;;4.29;94.85
8294;BME280;4185;41.506;24.938;2023-01-24T06:46:26;94570.84;;;4.34;94.29
8294;BME280;4185;41.506;24.938;2023-01-24T06:48:53;94565.13;;;4.32;94.42
8294;BME280;4185;41.506;24.938;2023-01-24T06:51:21;94561.00;;;4.28;94.32
8294;BME280;4185;41.506;24.938;2023-01-24T06:53:48;94565.19;;;4.29;94.42
8294;BME280;4185;41.506;24.938;2023-01-24T06:56:15;94564.59;;;4.21;94.15
8294;BME280;4185;41.506;24.938;2023-01-24T06:58:41;94566.63;;;4.17;94.16
8294;BME280;4185;41.506;24.938;2023-01-24T07:01:08;94576.19;;;4.18;94.26
8294;BME280;4185;41.506;24.938;2023-01-24T07:03:35;94580.97;;;4.11;94.86
8294;BME280;4185;41.506;24.938;2023-01-24T07:06:02;94582.41;;;4.15;94.79
8294;BME280;4185;41.506;24.938;2023-01-24T07:08:31;94581.28;;;4.13;94.41
8294;BME280;4185;41.506;24.938;2023-01-24T07:10:58;94586.94;;;4.18;94.95
8294;BME280;4185;41.506;24.938;2023-01-24T07:13:25;94578.88;;;4.18;95.15
8294;BME280;4185;41.506;24.938;2023-01-24T07:15:52;94592.75;;;4.17;94.60
8294;BME280;4185;41.506;24.938;2023-01-24T07:18:19;94600.13;;;4.13;94.18
8294;BME280;4185;41.506;24.938;2023-01-24T07:20:47;94600.88;;;4.13;93.50
8294;BME280;4185;41.506;24.938;2023-01-24T07:23:19;94603.22;;;4.11;93.71
8294;BME280;4185;41.506;24.938;2023-01-24T07:25:50;94604.06;;;4.08;93.96
8294;BME280;4185;41.506;24.938;2023-01-24T07:28:18;94594.16;;;4.05;94.96
8294;BME280;4185;41.506;24.938;2023-01-24T07:30:46;94590.78;;;4.01;95.51
8294;BME280;4185;41.506;24.938;2023-01-24T07:33:13;94598.50;;;3.99;95.74
8294;BME280;4185;41.506;24.938;2023-01-24T07:35:41;94587.28;;;4.04;95.49
8294;BME280;4185;41.506;24.938;2023-01-24T07:38:08;94589.13;;;4.07;95.59
8294;BME280;4185;41.506;24.938;2023-01-24T07:40:37;94589.47;;;4.09;95.42
8294;BME280;4185;41.506;24.938;2023-01-24T07:43:06;94595.72;;;4.03;94.62
8294;BME280;4185;41.506;24.938;2023-01-24T07:45:33;94601.09;;;4.03;94.83
8294;BME280;4185;41.506;24.938;2023-01-24T07:48:01;94599.94;;;4.04;94.03
8294;BME280;4185;41.506;24.938;2023-01-24T07:50:28;94597.19;;;4.07;94.04
8294;BME280;4185;41.506;24.938;2023-01-24T07:52:57;94599.31;;;4.16;94.22
8294;BME280;4185;41.506;24.938;2023-01-24T07:55:24;94593.09;;;4.19;93.58
8294;BME280;4185;41.506;24.938;2023-01-24T07:57:51;94590.81;;;4.17;93.30
8294;BME280;4185;41.506;24.938;2023-01-24T08:00:24;94597.69;;;4.18;94.66
8294;BME280;4185;41.506;24.938;2023-01-24T08:02:51;94600.22;;;4.25;93.78
8294;BME280;4185;41.506;24.938;2023-01-24T08:05:18;94595.53;;;4.29;93.89
8294;BME280;4185;41.506;24.938;2023-01-24T08:07:45;94596.53;;;4.35;93.31
8294;BME280;4185;41.506;24.938;2023-01-24T08:10:11;94608.00;;;4.39;92.93
8294;BME280;4185;41.506;24.938;2023-01-24T08:12:38;94597.47;;;4.29;91.43
8294;BME280;4185;41.506;24.938;2023-01-24T08:15:06;94595.84;;;4.31;93.50
8294;BME280;4185;41.506;24.938;2023-01-24T08:17:36;94598.88;;;4.33;92.20
8294;BME280;4185;41.506;24.938;2023-01-24T08:20:05;94594.63;;;4.36;92.25
8294;BME280;4185;41.506;24.938;2023-01-24T08:22:32;94598.88;;;4.33;91.57
8294;BME280;4185;41.506;24.938;2023-01-24T08:24:59;94595.47;;;4.33;91.83
8294;BME280;4185;41.506;24.938;2023-01-24T08:27:26;94612.09;;;4.28;92.45
8294;BME280;4185;41.506;24.938;2023-01-24T08:29:53;94594.44;;;4.27;94.26
8294;BME280;4185;41.506;24.938;2023-01-24T08:32:20;94599.75;;;4.30;93.43
8294;BME280;4185;41.506;24.938;2023-01-24T08:34:48;94600.50;;;4.31;93.30
8294;BME280;4185;41.506;24.938;2023-01-24T08:37:15;94597.38;;;4.32;93.07
8294;BME280;4185;41.506;24.938;2023-01-24T08:39:42;94596.63;;;4.32;94.22
8294;BME280;4185;41.506;24.938;2023-01-24T08:42:09;94600.00;;;4.36;93.40
8294;BME280;4185;41.506;24.938;2023-01-24T08:44:36;94614.38;;;4.29;92.51
8294;BME280;4185;41.506;24.938;2023-01-24T08:47:03;94604.44;;;4.26;94.44
8294;BME280;4185;41.506;24.938;2023-01-24T08:49:30;94605.81;;;4.34;94.48
8294;BME280;4185;41.506;24.938;2023-01-24T08:51:58;94606.47;;;4.38;92.54
8294;BME280;4185;41.506;24.938;2023-01-24T08:54:25;94606.47;;;4.38;93.43
8294;BME280;4185;41.506;24.938;2023-01-24T08:56:52;94609.06;;;4.42;93.56
8294;BME280;4185;41.506;24.938;2023-01-24T08:59:19;94604.47;;;4.42;92.81
8294;BME280;4185;41.506;24.938;2023-01-24T09:01:46;94600.94;;;4.45;93.96
8294;BME280;4185;41.506;24.938;2023-01-24T09:04:13;94597.47;;;4.45;93.34
8294;BME280;4185;41.506;24.938;2023-01-24T09:06:40;94602.63;;;4.39;93.08
8294;BME280;4185;41.506;24.938;2023-01-24T09:09:08;94593.84;;;4.35;92.66
8294;BME280;4185;41.506;24.938;2023-01-24T09:11:35;94603.47;;;4.36;93.92
8294;BME280;4185;41.506;24.938;2023-01-24T09:14:02;94602.63;;;4.39;94.03
8294;BME280;4185;41.506;24.938;2023-01-24T09:16:29;94602.63;;;4.39;93.92
8294;BME280;4185;41.506;24.938;2023-01-24T09:18:56;94604.47;;;4.42;92.99
8294;BME280;4185;41.506;24.938;2023-01-24T09:21:23;94613.03;;;4.37;92.22
8294;BME280;4185;41.506;24.938;2023-01-24T09:23:49;94603.78;;;4.38;93.56
8294;BME280;4185;41.506;24.938;2023-01-24T09:26:18;94603.28;;;4.43;93.42
8294;BME280;4185;41.506;24.938;2023-01-24T09:28:44;94601.84;;;4.39;92.09
8294;BME280;4185;41.506;24.938;2023-01-24T09:31:11;94592.09;;;4.29;93.81
8294;BME280;4185;41.506;24.938;2023-01-24T09:33:38;94586.38;;;4.27;93.82
8294;BME280;4185;41.506;24.938;2023-01-24T09:36:06;94579.22;;;4.20;94.17
8294;BME280;4185;41.506;24.938;2023-01-24T09:38:34;94586.28;;;4.30;93.74
8294;BME280;4185;41.506;24.938;2023-01-24T09:41:08;94590.75;;;4.37;92.38
8294;BME280;4185;41.506;24.938;2023-01-24T09:43:45;94581.94;;;4.36;92.54
8294;BME280;4185;41.506;24.938;2023-01-24T09:46:23;94580.06;;;4.33;92.60
8294;BME280;4185;41.506;24.938;2023-01-24T09:48:58;94575.78;;;4.36;92.75
8294;BME280;4185;41.506;24.938;2023-01-24T09:51:29;94570.34;;;4.39;91.20
8294;BME280;4185;41.506;24.938;2023-01-24T09:53:59;94555.19;;;4.29;91.32
8294;BME280;4185;41.506;24.938;2023-01-24T09:56:30;94569.88;;;4.25;92.53
8294;BME280;4185;41.506;24.938;2023-01-24T09:59:12;94564.59;;;4.21;91.94
8294;BME280;4185;41.506;24.938;2023-01-24T10:01:40;94561.25;;;4.17;91.84
8294;BME280;4185;41.506;24.938;2023-01-24T10:04:14;94560.91;;;4.15;93.07
8294;BME280;4185;41.506;24.938;2023-01-24T10:06:54;94554.75;;;4.15;92.14
8294;BME280;4185;41.506;24.938;2023-01-24T10:09:31;94549.28;;;4.18;93.25
8294;BME280;4185;41.506;24.938;2023-01-24T10:12:06;94550.41;;;4.21;92.75
8294;BME280;4185;41.506;24.938;2023-01-24T10:14:47;94556.00;;;4.26;91.39
8294;BME280;4185;41.506;24.938;2023-01-24T10:20:29;94553.16;;;4.33;92.70
8294;BME280;4185;41.506;24.938;2023-01-24T10:23:05;94548.28;;;4.28;92.88
8294;BME280;4185;41.506;24.938;2023-01-24T10:25:45;94548.44;;;4.21;92.37
8294;BME280;4185;41.506;24.938;2023-01-24T10:28:19;94548.63;;;4.14;91.98
8294;BME280;4185;41.506;24.938;2023-01-24T10:30:55;94547.72;;;4.21;93.06
8294;BME280;4185;41.506;24.938;2023-01-24T10:33:27;94533.84;;;4.22;92.04
8294;BME280;4185;41.506;24.938;2023-01-24T10:35:58;94530.81;;;4.20;91.86
8294;BME280;4185;41.506;24.938;2023-01-24T10:38:27;94528.38;;;4.26;92.90
8294;BME280;4185;41.506;24.938;2023-01-24T10:40:55;94530.31;;;4.25;92.46
8294;BME280;4185;41.506;24.938;2023-01-24T10:43:25;94533.69;;;4.29;92.30
8294;BME280;4185;41.506;24.938;2023-01-24T10:46:05;94532.16;;;4.28;91.02
8294;BME280;4185;41.506;24.938;2023-01-24T10:48:39;94525.34;;;4.24;91.34
8294;BME280;4185;41.506;24.938;2023-01-24T10:51:13;94523.25;;;4.15;90.70
8294;BME280;4185;41.506;24.938;2023-01-24T10:53:40;94519.38;;;4.16;90.87
8294;BME280;4185;41.506;24.938;2023-01-24T10:56:07;94492.84;;;4.02;91.60
8294;BME280;4185;41.506;24.938;2023-01-24T10:58:36;94516.19;;;4.21;91.39
8294;BME280;4185;41.506;24.938;2023-01-24T11:01:16;94512.16;;;4.29;90.96
8294;BME280;4185;41.506;24.938;2023-01-24T11:03:44;94511.50;;;4.25;89.90
8294;BME280;4185;41.506;24.938;2023-01-24T11:06:31;94511.16;;;4.23;91.17
8294;BME280;4185;41.506;24.938;2023-01-24T11:09:04;94506.28;;;4.18;91.32
8294;BME280;4185;41.506;24.938;2023-01-24T11:11:40;94508.88;;;4.22;90.58
8294;BME280;4185;41.506;24.938;2023-01-24T11:14:11;94504.28;;;4.22;90.96
8294;BME280;4185;41.506;24.938;2023-01-24T11:16:43;94503.75;;;4.27;91.75
8294;BME280;4185;41.506;24.938;2023-01-24T11:19:23;94511.31;;;4.32;91.68
8294;BME280;4185;41.506;24.938;2023-01-24T11:21:53;94507.97;;;4.28;90.75
8294;BME280;4185;41.506;24.938;2023-01-24T11:24:21;94500.06;;;4.21;90.83
8294;BME280;4185;41.506;24.938;2023-01-24T11:26:54;94501.66;;;4.19;90.33
8294;BME280;4185;41.506;24.938;2023-01-24T11:29:23;94502.94;;;4.14;90.80
8294;BME280;4185;41.506;24.938;2023-01-24T11:31:53;94499.47;;;4.14;90.39
8294;BME280;4185;41.506;24.938;2023-01-24T11:34:44;94505.19;;;4.16;91.07
8294;BME280;4185;41.506;24.938;2023-01-24T11:37:32;94503.25;;;4.16;91.45
8294;BME280;4185;41.506;24.938;2023-01-24T11:40:14;94491.25;;;4.21;90.64
8294;BME280;4185;41.506;24.938;2023-01-24T11:42:53;94489.28;;;4.21;91.17
8294;BME280;4185;41.506;24.938;2023-01-24T11:45:32;94488.97;;;4.19;91.57
8294;BME280;4185;41.506;24.938;2023-01-24T11:48:12;94497.22;;;4.12;91.27
8294;BME280;4185;41.506;24.938;2023-01-24T11:50:53;94490.00;;;4.09;90.94
8294;BME280;4185;41.506;24.938;2023-01-24T11:53:35;94499.38;;;4.01;92.23
8294;BME280;4185;41.506;24.938;2023-01-24T11:56:14;94498.28;;;3.99;92.28
8294;BME280;4185;41.506;24.938;2023-01-24T11:58:57;94503.66;;;3.99;91.87
8294;BME280;4185;41.506;24.938;2023-01-24T12:01:33;94495.25;;;3.97;92.48
8294;BME280;4185;41.506;24.938;2023-01-24T12:04:24;94495.94;;;4.01;92.25
8294;BME280;4185;41.506;24.938;2023-01-24T12:07:02;94494.25;;;4.07;92.21
8294;BME280;4185;41.506;24.938;2023-01-24T12:09:37;94494.53;;;4.12;92.27
8294;BME280;4185;41.506;24.938;2023-01-24T12:12:14;94491.31;;;4.17;91.65
8294;BME280;4185;41.506;24.938;2023-01-24T12:15:00;94491.00;;;4.15;91.80
8294;BME280;4185;41.506;24.938;2023-01-24T12:17:41;94497.78;;;4.20;92.28
8294;BME280;4185;41.506;24.938;2023-01-24T12:20:32;94499.41;;;4.17;91.53
8294;BME280;4185;41.506;24.938;2023-01-24T12:25:48;94491.84;;;4.12;92.24
8294;BME280;4185;41.506;24.938;2023-01-24T12:28:25;94496.53;;;4.08;91.65
8294;BME280;4185;41.506;24.938;2023-01-24T12:30:57;94488.28;;;3.99;92.39
8294;BME280;4185;41.506;24.938;2023-01-24T12:33:27;94493.84;;;3.92;92.14
8294;BME280;4185;41.506;24.938;2023-01-24T12:36:01;94496.41;;;3.80;92.93
8294;BME280;4185;41.506;24.938;2023-01-24T12:38:35;94498.03;;;3.77;93.73
8294;BME280;4185;41.506;24.938;2023-01-24T12:41:11;94501.09;;;3.75;93.65
8294;BME280;4185;41.506;24.938;2023-01-24T12:43:49;94486.16;;;3.74;94.32
8294;BME280;4185;41.506;24.938;2023-01-24T12:46:25;94485.59;;;3.83;94.44
8294;BME280;4185;41.506;24.938;2023-01-24T12:48:58;94501.28;;;3.85;92.97
8294;BME280;4185;41.506;24.938;2023-01-24T12:51:32;94504.56;;;3.76;92.77
8294;BME280;4185;41.506;24.938;2023-01-24T12:54:09;94499.31;;;3.69;93.14
8294;BME280;4185;41.506;24.938;2023-01-24T12:56:45;94509.59;;;3.74;93.65
8294;BME280;4185;41.506;24.938;2023-01-24T12:59:18;94508.06;;;3.73;92.72
8294;BME280;4185;41.506;24.938;2023-01-24T13:04:48;94521.63;;;3.50;93.00
8294;BME280;4185;41.506;24.938;2023-01-24T13:07:31;94518.44;;;3.55;93.97
8294;BME280;4185;41.506;24.938;2023-01-24T13:10:08;94523.91;;;3.51;94.53
8294;BME280;4185;41.506;24.938;2023-01-24T13:12:38;94481.78;;;3.29;93.62
8294;BME280;4185;41.506;24.938;2023-01-24T13:15:15;94518.25;;;3.46;95.12
8294;BME280;4185;41.506;24.938;2023-01-24T13:18:04;94527.97;;;3.40;93.99
8294;BME280;4185;41.506;24.938;2023-01-24T13:20:43;94518.88;;;3.34;94.82
8294;BME280;4185;41.506;24.938;2023-01-24T13:23:26;94522.81;;;3.29;94.95
8294;BME280;4185;41.506;24.938;2023-01-24T13:26:13;94523.53;;;3.30;94.84
8294;BME280;4185;41.506;24.938;2023-01-24T13:28:51;94518.88;;;3.34;94.95
8294;BME280;4185;41.506;24.938;2023-01-24T13:31:27;94520.47;;;3.31;95.39
8294;BME280;4185;41.506;24.938;2023-01-24T13:33:57;94525.06;;;3.31;94.44
8294;BME280;4185;41.506;24.938;2023-01-24T13:36:28;94530.50;;;3.27;94.78
8294;BME280;4185;41.506;24.938;2023-01-24T13:38:58;94517.09;;;3.27;94.76
8294;BME280;4185;41.506;24.938;2023-01-24T13:41:35;94517.44;;;3.29;94.87
8294;BME280;4185;41.506;24.938;2023-01-24T13:44:03;94517.44;;;3.29;94.83
8294;BME280;4185;41.506;24.938;2023-01-24T13:46:59;94522.94;;;3.22;94.31
8294;BME280;4185;41.506;24.938;2023-01-24T13:49:44;94514.69;;;3.13;95.19
8294;BME280;4185;41.506;24.938;2023-01-24T13:52:36;94517.56;;;3.03;95.44